• Join FlightAware (Why Join?)
  • Login
  • US Flag 
12:50AM EDT


 

Airport Tracker/Info


-or-


 

Live Flight TrackerFlight Track Log ✈ AAL1473 ✈ 14-May-2013 ✈ KDFW - KPHX

Flight Track Log - Related Links

Times and Time Zones

All times are in EDT time to prevent confusion due to time zone crossing. See the AAL1473 flight status page for this flight to view local times or setup timezone preferences in your user account.

Time Position Orientation Groundspeed Altitude Reporting Facility
EDT Latitude Longitude Course Direction KTS MPH feet Rate Location/Type
10:51PM 32.8833 -97.0500 280° West 170 196 1,700  Level Dallas / Fort Worth TRACON
10:51PM 32.8500 -97.0667 203° Southwest 194 223 3,100 2,040 Climbing Dallas / Fort Worth TRACON
10:53PM 32.9266 -97.4192 280° West  Level FlightAware Approximate
10:53PM 32.7667 -97.0833 190° South 243 280 5,800  Level Dallas / Fort Worth TRACON
10:53PM 32.7333 -97.1333 232° Southwest 278 320 7,900 2,100 Climbing Dallas / Fort Worth TRACON
10:54PM 32.9481 -97.5549 281° West  Level FlightAware Approximate
10:55PM 32.9667 -97.6909 270° West  Level FlightAware Approximate
10:55PM 32.7667 -97.2333 292° West 285 328 9,800  Level Dallas / Fort Worth TRACON
10:56PM 32.9812 -97.8275 280° West  Level FlightAware Approximate
10:56PM 32.8103 -97.3369 297° West 311 358 11,500  Level Fort Worth Center
10:57PM 32.8481 -97.4283 296° West 331 381 13,700 2,340 Climbing Fort Worth Center
10:58PM 32.9000 -97.5422 299° West 346 398 16,200 2,160 Climbing Fort Worth Center
10:59PM 32.9481 -97.6586 296° West 372 428 18,100 1,980 Climbing Fort Worth Center
11:00PM 32.9853 -97.7775 290° West 384 442 20,200 1,980 Climbing Fort Worth Center
11:01PM 33.0078 -97.8989 282° West 384 442 22,100 1,800 Climbing Fort Worth Center
11:02PM 33.0303 -98.0278 282° West 397 457 23,800 1,500 Climbing Fort Worth Center
11:03PM 33.0503 -98.1569 281° West 397 457 25,200 1,620 Climbing Fort Worth Center
11:04PM 33.0619 -98.2858 276° West 397 457 27,100 1,380 Climbing Fort Worth Center
11:05PM 33.0694 -98.4175 274° West 397 457 28,000 960 Climbing Fort Worth Center
11:06PM 33.0744 -98.5539 273° West 409 471 29,100 900 Climbing Fort Worth Center
11:07PM 33.0794 -98.6753 273° West 409 471 29,900 1,080 Climbing Fort Worth Center
11:08PM 33.0928 -98.8119 277° West 415 478 31,300 960 Climbing Fort Worth Center
11:09PM 33.1036 -98.9436 276° West 415 478 31,900 300 Climbing Fort Worth Center
11:10PM 33.1125 -99.0775 275° West 410 472 32,000  Climbing Fort Worth Center
11:11PM 33.1169 -99.2092 272° West 404 465 32,000  Level Fort Worth Center
11:12PM 33.1189 -99.3506 271° West 404 465 32,000  Level Fort Worth Center
11:13PM 33.1189 -99.4794 270° West 404 465 32,000  Level Fort Worth Center
11:14PM 33.1208 -99.6086 271° West 399 459 32,000  Level Fort Worth Center
11:15PM 33.1228 -99.7375 271° West 399 459 32,000  Level Fort Worth Center
11:16PM 33.1350 -99.8694 276° West 399 459 32,000  Level Fort Worth Center
11:17PM 33.1617 -99.9967 284° West 404 465 32,000  Level Fort Worth Center
11:18PM 33.1944 -100.1217 287° West 398 458 32,000  Level Fort Worth Center
11:19PM 33.2231 -100.2467 285° West 398 458 32,000  Level Fort Worth Center
11:20PM 33.2536 -100.3694 287° West 398 458 32,000  Level Fort Worth Center
11:21PM 33.2839 -100.4947 286° West 398 458 32,000  Level Fort Worth Center
11:22PM 33.3139 -100.6275 285° West 405 466 32,000  Level Fort Worth Center
11:23PM 33.3439 -100.7553 286° West 405 466 32,000  Level Fort Worth Center
11:24PM 33.3758 -100.8883 286° West 405 466 32,000  Level Fort Worth Center
11:25PM 33.4036 -101.0164 285° West 410 472 32,000  Level Fort Worth Center
11:26PM 33.4314 -101.1369 285° West 410 472 32,000  Level Fort Worth Center
11:27PM 33.4644 -101.2828 285° West 410 472 32,000  Level Fort Worth Center
11:28PM 33.4919 -101.4036 285° West 416 479 32,000  Level Fort Worth Center
11:29PM 33.5247 -101.5494 285° West 425 489 32,000  Level Fort Worth Center
11:30PM 33.5519 -101.6706 285° West 420 483 32,000  Level Fort Worth Center
11:31PM 33.5808 -101.8064 284° West 425 489 32,000  Level Fort Worth Center
11:32PM 33.6133 -101.9453 286° West 417 480 32,000  Level Fort Worth Center
11:33PM 33.6414 -102.0889 283° West 410 472 32,000  Level Fort Worth Center
11:34PM 33.6661 -102.2100 284° West 410 472 32,000  Level Fort Worth Center
11:35PM 33.7206 -102.4408 286° West 413 475 32,000  Level Albuquerque Center
11:36PM 33.7489 -102.5719 285° West 411 473 32,000  Level Albuquerque Center
11:37PM 33.7767 -102.7033 284° West 408 470 32,000 300 Level Albuquerque Center
11:39PM 33.8050 -102.8350 285° West 409 471 32,700 720 Climbing Albuquerque Center
11:40PM 33.8331 -102.9669 284° West 408 470 33,500 600 Climbing Albuquerque Center
11:41PM 33.8681 -103.1225 285° West 404 465 34,000 240 Climbing Albuquerque Center
11:42PM 33.8978 -103.2575 285° West 413 475 34,000  Level Albuquerque Center
11:43PM 33.9267 -103.3942 284° West 419 482 34,000  Level Albuquerque Center
11:44PM 33.9536 -103.5328 283° West 423 487 34,000  Level Albuquerque Center
11:45PM 33.9819 -103.6675 284° West 420 483 34,000  Level Albuquerque Center
11:46PM 34.0117 -103.8183 283° West 419 482 34,000  Level Albuquerque Center
11:47PM 34.0397 -103.9586 284° West 423 487 34,000  Level Albuquerque Center
11:48PM 34.0700 -104.0981 285° West 425 489 34,000  Level Albuquerque Center
11:49PM 34.0983 -104.2392 284° West 427 491 34,000  Level Albuquerque Center
11:50PM 34.1264 -104.3825 283° West 430 495 34,000  Level Albuquerque Center
11:51PM 34.1547 -104.5253 284° West 433 498 34,000  Level Albuquerque Center
11:52PM 34.1811 -104.6664 283° West 429 494 34,000  Level Albuquerque Center
11:53PM 34.2092 -104.8119 283° West 435 501 34,000  Level Albuquerque Center
11:54PM 34.2383 -104.9603 283° West 445 512 34,000  Level Albuquerque Center
11:55PM 34.2672 -105.1050 284° West 443 510 34,000  Level Albuquerque Center
11:56PM 34.2944 -105.2506 283° West 441 507 34,000  Level Albuquerque Center
11:57PM 34.3231 -105.4000 283° West 448 516 34,000  Level Albuquerque Center
11:58PM 34.3508 -105.5492 283° West 449 517 34,000  Level Albuquerque Center
11:59PM 34.3800 -105.6961 284° West 447 514 34,000  Level Albuquerque Center
12:00AM 34.4072 -105.8458 282° West 450 518 34,000  Level Albuquerque Center
12:01AM 34.4336 -105.9956 282° West 451 519 34,000  Level Albuquerque Center
12:02AM 34.4658 -106.1711 283° West 452 520 34,000  Level Albuquerque Center
12:03AM 34.4906 -106.3128 282° West 455 524 34,000  Level Albuquerque Center
12:04AM 34.5169 -106.4625 282° West 454 522 34,000  Level Albuquerque Center
12:05AM 34.5450 -106.6103 283° West 450 518 34,000  Level Albuquerque Center
12:06AM 34.5706 -106.7600 282° West 449 517 34,000  Level Albuquerque Center
12:07AM 34.5942 -106.9108 281° West 452 520 34,000  Level Albuquerque Center
12:08AM 34.6053 -107.0628 275° West 450 518 34,000  Level Albuquerque Center
12:09AM 34.6136 -107.2167 274° West 451 519 34,000  Level Albuquerque Center
12:10AM 34.6208 -107.3672 273° West 447 514 34,000 -60 Level Albuquerque Center
12:11AM 34.6281 -107.5181 273° West 446 513 33,900 -660 Descending Albuquerque Center
12:12AM 34.6336 -107.6711 273° West 450 518 32,700 -1,380 Descending Albuquerque Center
12:13AM 34.6414 -107.8247 274° West 454 522 31,200 -1,260 Descending Albuquerque Center
12:14AM 34.6483 -107.9806 273° West 460 529 30,200 -600 Descending Albuquerque Center
12:15AM 34.6544 -108.1375 273° West 463 533 30,000 -120 Descending Albuquerque Center
12:16AM 34.6614 -108.2942 273° West 465 535 30,000  Level Albuquerque Center
12:17AM 34.6675 -108.4744 272° West 450 518 30,000  Level Albuquerque Center
12:18AM 34.6736 -108.6289 273° West 446 513 30,000 -360 Level Albuquerque Center
12:19AM 34.6778 -108.7722 272° West 445 512 29,300 -840 Descending Albuquerque Center
12:20AM 34.6828 -108.9167 272° West 446 513 28,300 -660 Descending Albuquerque Center
12:21AM 34.6883 -109.0783 272° West 433 498 28,000 -180 Descending Albuquerque Center
12:22AM 34.6922 -109.2178 272° West 432 497 28,000  Level Albuquerque Center
12:23AM 34.6964 -109.3575 272° West 431 496 28,000  Level Albuquerque Center
12:24AM 34.7011 -109.5219 272° West 434 499 28,000  Level Albuquerque Center
12:25AM 34.7042 -109.6686 271° West 443 510 28,000  Level Albuquerque Center
12:26AM 34.7089 -109.8164 272° West 452 520 28,000  Level Albuquerque Center
12:27AM 34.6658 -109.9750 252° West 452 520 28,000  Level Albuquerque Center
12:28AM 34.6181 -110.1072 246° West 449 517 28,000  Level Albuquerque Center
12:29AM 34.5722 -110.2456 248° West 455 524 28,000  Level Albuquerque Center
12:30AM 34.5008 -110.3892 239° Southwest 452 520 28,000 -60 Level Albuquerque Center
12:31AM 34.4336 -110.5128 237° Southwest 461 531 27,900 -900 Descending Albuquerque Center
12:32AM 34.3594 -110.6350 234° Southwest 454 522 26,200 -2,040 Descending Albuquerque Center
12:33AM 34.2836 -110.7522 232° Southwest 446 513 23,900 -2,400 Descending Albuquerque Center
12:34AM 34.2114 -110.8678 233° Southwest 437 503 21,400 -2,340 Descending Albuquerque Center
12:35AM 34.1439 -110.9808 234° Southwest 423 487 19,200 -2,340 Descending Albuquerque Center
12:36AM 34.0781 -111.0878 233° Southwest 406 467 16,800 -2,280 Descending Albuquerque Center
12:37AM 34.0147 -111.1922 234° Southwest 392 451 14,600 -2,040 Descending Albuquerque Center
12:38AM 33.9547 -111.2894 233° Southwest 373 429 12,700 -1,260 Descending Albuquerque Center
12:40AM 33.8994 -111.3797 234° Southwest 344 396 12,100 -840 Descending Albuquerque Center
12:41AM 33.8453 -111.4558 229° Southwest 310 357 11,100 -1,080 Descending Albuquerque Center
12:42AM 33.7944 -111.5283 230° Southwest 290 334 10,000 -1,200 Descending Albuquerque Center
12:43AM 33.7289 -111.5806 214° Southwest 287 330 8,700 -1,020 Descending Albuquerque Center
12:44AM 33.6628 -111.6275 211° Southwest 281 323 8,000 -420 Descending Albuquerque Center
12:45AM 33.6053 -111.6681 210° Southwest 262 302 7,900 -660 Descending Albuquerque Center
12:46AM 33.5486 -111.7042 208° Southwest 235 270 6,700 -1,380 Descending Albuquerque Center
12:47AM 33.4933 -111.7403 209° Southwest 229 264 5,200 -1,440 Descending Albuquerque Center
12:48AM 33.4533 -111.7903 226° Southwest 217 250 3,900 -960 Descending Albuquerque Center
12:49AM 33.4419 -111.8486 257° West 194 223 3,300 -720 Descending Albuquerque Center
12:50AM 33.4411 -111.9022 269° West 177 204 2,500 -840 Descending Albuquerque Center